Time;durP1;ratioP1;P1;durP2;ratioP2;P2;SDS_P1;SDS_P2;PMS_P1;PMS_P2;Temp;Humidity;BMP_temperature;BMP_pressure;BME280_temperature;BME280_humidity;BME280_pressure;Samples;Min_cycle;Max_cycle;Signal;HPM_P1;HPM_P2
2023/12/08 00:01:17;;;;;;;;;;;;;;;17.72;65.27;101278.69;7393840;19;1443;-41
2023/12/08 00:03:45;;;;;;;;;;;;;;;17.65;65.26;101262.25;7393103;19;1859;-41
2023/12/08 00:06:14;;;;;;;;;;;;;;;17.62;65.27;101272.34;7394966;19;1492;-41
2023/12/08 00:08:45;;;;;;;;;;;;;;;17.58;65.35;101269.03;7395144;19;1547;-41
2023/12/08 00:11:13;;;;;;;;;;;;;;;17.57;65.49;101266.50;7394695;19;1454;-42
2023/12/08 00:13:44;;;;;;;;;;;;;;;17.47;65.50;101259.13;7396998;19;1425;-41
2023/12/08 00:16:12;;;;;;;;;;;;;;;17.64;65.33;101265.03;7392455;19;1570;-41
2023/12/08 00:18:41;;;;;;;;;;;;;;;18.22;63.75;101257.13;7394846;19;1441;-41
2023/12/08 00:21:09;;;;;;;;;;;;;;;18.32;63.18;101267.97;7395801;19;1460;-43
2023/12/08 00:23:37;;;;;;;;;;;;;;;18.04;63.62;101262.91;7396663;19;1862;-41
2023/12/08 00:26:12;;;;;;;;;;;;;;;17.84;64.39;101272.44;7396915;19;1453;-41
2023/12/08 00:28:40;;;;;;;;;;;;;;;17.72;64.55;101273.34;7397521;19;1475;-41
2023/12/08 00:31:09;;;;;;;;;;;;;;;17.68;64.82;101266.53;7397258;19;1504;-41
2023/12/08 00:33:37;;;;;;;;;;;;;;;17.63;65.14;101258.00;7399724;19;1458;-41
2023/12/08 00:36:13;;;;;;;;;;;;;;;17.62;64.99;101275.00;7399322;19;1564;-41
2023/12/08 00:38:41;;;;;;;;;;;;;;;17.56;65.37;101267.44;7399866;19;1709;-41
2023/12/08 00:41:12;;;;;;;;;;;;;;;18.03;63.79;101271.94;7396014;19;1584;-42
2023/12/08 00:43:41;;;;;;;;;;;;;;;18.40;62.95;101277.13;7393451;19;1866;-41
2023/12/08 00:46:10;;;;;;;;;;;;;;;18.15;63.35;101296.91;7393002;19;1746;-41
2023/12/08 00:48:39;;;;;;;;;;;;;;;17.93;63.91;101291.47;7393317;19;1460;-41
2023/12/08 00:51:07;;;;;;;;;;;;;;;17.78;64.52;101283.59;7394970;19;1606;-41
2023/12/08 00:53:35;;;;;;;;;;;;;;;17.66;64.74;101279.16;7394447;19;1837;-41
2023/12/08 00:56:04;;;;;;;;;;;;;;;17.07;65.07;101197.94;7393153;19;1493;-41
2023/12/08 00:58:35;;;;;;;;;;;;;;;17.59;65.09;101272.56;7392835;19;1408;-41
2023/12/08 01:01:03;;;;;;;;;;;;;;;17.49;65.34;101261.69;7393966;19;1457;-41
2023/12/08 01:03:31;;;;;;;;;;;;;;;18.01;63.82;101273.03;7392380;19;1847;-41
2023/12/08 01:06:00;;;;;;;;;;;;;;;18.34;62.74;101269.56;7394757;19;1207;-41
2023/12/08 01:08:28;;;;;;;;;;;;;;;18.07;63.32;101261.84;7393288;19;1423;-41
2023/12/08 01:10:56;;;;;;;;;;;;;;;17.85;63.93;101278.69;7392885;19;1484;-41
2023/12/08 01:13:25;;;;;;;;;;;;;;;17.65;64.42;101272.13;7393421;19;1757;-41
2023/12/08 01:15:56;;;;;;;;;;;;;;;17.62;64.75;101280.34;7392767;19;1598;-41
2023/12/08 01:18:24;;;;;;;;;;;;;;;17.57;64.83;101261.13;7392874;19;1762;-41
2023/12/08 01:20:54;;;;;;;;;;;;;;;17.57;64.74;101256.63;7392512;19;1606;-41
2023/12/08 01:23:22;;;;;;;;;;;;;;;17.52;65.10;101271.31;7391219;19;1857;-41
2023/12/08 01:25:51;;;;;;;;;;;;;;;17.36;65.40;101261.72;7391233;19;1331;-41
2023/12/08 01:28:20;;;;;;;;;;;;;;;17.31;65.68;101271.94;7393447;19;1638;-41
2023/12/08 01:30:48;;;;;;;;;;;;;;;17.24;65.25;101266.16;7392092;19;1409;-41
2023/12/08 01:33:19;;;;;;;;;;;;;;;17.25;65.26;101269.72;7392090;19;1557;-41
2023/12/08 01:35:47;;;;;;;;;;;;;;;17.80;64.22;101264.75;7394350;19;1388;-41
2023/12/08 01:38:15;;;;;;;;;;;;;;;18.42;62.38;101255.56;7391948;19;1902;-42
2023/12/08 01:40:44;;;;;;;;;;;;;;;18.20;62.80;101264.41;7391422;19;1611;-41
2023/12/08 01:43:13;;;;;;;;;;;;;;;17.91;63.54;101255.97;7389564;19;1859;-41
2023/12/08 01:45:42;;;;;;;;;;;;;;;17.76;64.34;101250.75;7390986;19;1841;-41
2023/12/08 01:48:10;;;;;;;;;;;;;;;17.59;64.54;101252.03;7392422;19;1559;-41
2023/12/08 01:50:42;;;;;;;;;;;;;;;17.55;64.65;101249.69;7391870;19;1465;-41
2023/12/08 01:53:08;;;;;;;;;;;;;;;17.51;64.78;101257.09;7392203;19;1242;-41
2023/12/08 01:55:36;;;;;;;;;;;;;;;17.56;64.68;101252.25;7391480;19;1651;-41
2023/12/08 01:58:05;;;;;;;;;;;;;;;18.04;63.32;101246.00;7391918;19;1792;-41
2023/12/08 02:00:33;;;;;;;;;;;;;;;18.23;62.83;101248.97;7391913;19;1444;-41
2023/12/08 02:03:02;;;;;;;;;;;;;;;18.01;63.23;101270.34;7390005;19;1845;-41
2023/12/08 02:05:33;;;;;;;;;;;;;;;17.77;63.68;101247.13;7390202;19;1579;-41
2023/12/08 02:08:04;;;;;;;;;;;;;;;17.68;64.34;101262.00;7389776;19;1912;-41
2023/12/08 02:10:32;;;;;;;;;;;;;;;17.59;64.45;101256.53;7391843;19;1530;-41
2023/12/08 02:13:00;;;;;;;;;;;;;;;17.55;64.56;101266.59;7392656;19;1478;-41
2023/12/08 02:15:29;;;;;;;;;;;;;;;17.46;64.75;101273.47;7391056;19;1564;-41
2023/12/08 02:17:57;;;;;;;;;;;;;;;17.73;63.96;101259.03;7390387;19;1467;-41
2023/12/08 02:20:25;;;;;;;;;;;;;;;18.28;62.50;101275.38;7391946;19;1488;-41
2023/12/08 02:22:51;;;;;;;;;;;;;;;18.16;62.83;101282.53;7390614;19;1859;-41
2023/12/08 02:25:22;;;;;;;;;;;;;;;17.86;63.29;101275.03;7390666;19;1632;-41
2023/12/08 02:27:50;;;;;;;;;;;;;;;17.68;64.17;101261.16;7391087;19;1496;-41
2023/12/08 02:30:19;;;;;;;;;;;;;;;17.60;64.49;101263.56;7389497;19;1485;-41
2023/12/08 02:32:52;;;;;;;;;;;;;;;17.46;64.83;101269.94;7392797;19;1053;-41
2023/12/08 02:35:22;;;;;;;;;;;;;;;18.00;63.64;101276.66;7391734;19;1774;-41
2023/12/08 02:37:53;;;;;;;;;;;;;;;18.94;60.60;101255.97;7391160;19;1553;-41
2023/12/08 02:40:24;;;;;;;;;;;;;;;19.53;59.42;101286.97;7391294;19;1610;-41
2023/12/08 02:42:52;;;;;;;;;;;;;;;19.86;58.43;101265.41;7390533;19;1849;-41
2023/12/08 02:45:20;;;;;;;;;;;;;;;19.64;59.05;101276.22;7391116;19;1600;-41
2023/12/08 02:47:48;;;;;;;;;;;;;;;19.53;59.36;101269.03;7390250;19;1497;-41
2023/12/08 02:50:17;;;;;;;;;;;;;;;19.56;59.21;101267.94;7389815;19;1415;-41
2023/12/08 02:52:45;;;;;;;;;;;;;;;19.78;58.84;101253.63;7391120;19;1575;-41
2023/12/08 02:55:14;;;;;;;;;;;;;;;20.09;57.89;101262.59;7399216;19;1215;-41
2023/12/08 02:57:44;;;;;;;;;;;;;;;19.98;58.05;101258.16;7398519;19;1928;-41
2023/12/08 03:00:13;;;;;;;;;;;;;;;20.08;57.76;101266.28;7396699;19;1784;-41
2023/12/08 03:02:41;;;;;;;;;;;;;;;20.12;57.73;101274.94;7397458;19;1843;-42
2023/12/08 03:05:10;;;;;;;;;;;;;;;20.07;57.84;101267.25;7398175;19;1714;-41
2023/12/08 03:07:39;;;;;;;;;;;;;;;20.01;57.85;101267.78;7397414;19;1757;-41
2023/12/08 03:10:08;;;;;;;;;;;;;;;20.13;57.74;101279.31;7396772;19;1568;-41
2023/12/08 03:12:36;;;;;;;;;;;;;;;20.20;57.61;101278.66;7396425;19;1733;-41
2023/12/08 03:15:07;;;;;;;;;;;;;;;20.10;57.52;101272.38;7380152;19;1393;-41
2023/12/08 03:17:36;;;;;;;;;;;;;;;20.21;57.32;101280.38;7397859;19;1452;-41
2023/12/08 03:20:05;;;;;;;;;;;;;;;20.20;57.38;101284.03;7396904;19;1515;-41
2023/12/08 03:22:33;;;;;;;;;;;;;;;20.16;57.29;101271.00;7397282;19;1477;-41
2023/12/08 03:25:01;;;;;;;;;;;;;;;20.30;57.18;101285.94;7397008;19;1381;-41
2023/12/08 03:27:29;;;;;;;;;;;;;;;20.23;57.47;101289.16;7396967;19;1643;-41
2023/12/08 03:29:58;;;;;;;;;;;;;;;20.23;57.20;101286.47;7395698;19;1465;-41
2023/12/08 03:32:29;;;;;;;;;;;;;;;20.35;57.05;101283.69;7396593;19;1734;-41
2023/12/08 03:34:58;;;;;;;;;;;;;;;20.06;57.79;101287.03;7396204;19;1853;-41
2023/12/08 03:37:26;;;;;;;;;;;;;;;20.21;57.38;101283.06;7395274;19;1606;-41
2023/12/08 03:39:57;;;;;;;;;;;;;;;20.38;57.11;101275.38;7395948;19;1468;-41
2023/12/08 03:42:25;;;;;;;;;;;;;;;20.39;56.90;101303.94;7396311;19;1536;-41
2023/12/08 03:44:54;;;;;;;;;;;;;;;20.35;57.08;101278.31;7393943;19;1850;-41
2023/12/08 03:47:22;;;;;;;;;;;;;;;20.36;56.97;101283.56;7395989;19;1505;-41
2023/12/08 03:49:53;;;;;;;;;;;;;;;20.39;56.86;101274.38;7396806;19;1807;-41
2023/12/08 03:52:21;;;;;;;;;;;;;;;20.34;57.16;101295.44;7396507;19;1755;-41
2023/12/08 03:54:49;;;;;;;;;;;;;;;20.32;57.15;101292.03;7395664;19;1900;-41
2023/12/08 03:57:18;;;;;;;;;;;;;;;20.27;57.39;101284.34;7395829;19;1844;-41
2023/12/08 03:59:46;;;;;;;;;;;;;;;20.21;57.22;101291.13;7395605;19;1844;-41
2023/12/08 04:02:14;;;;;;;;;;;;;;;19.52;59.27;101285.25;7395031;19;1672;-41
2023/12/08 04:04:44;;;;;;;;;;;;;;;19.01;60.11;101278.66;7391405;19;1846;-41
2023/12/08 04:07:14;;;;;;;;;;;;;;;18.67;60.98;101283.97;7395195;19;1743;-41
2023/12/08 04:09:43;;;;;;;;;;;;;;;18.51;61.64;101294.19;7393831;19;1563;-41
2023/12/08 04:12:11;;;;;;;;;;;;;;;18.83;60.93;101284.50;7395283;19;1452;-41
2023/12/08 04:14:40;;;;;;;;;;;;;;;19.43;59.34;101282.34;7381465;19;1626;-41
2023/12/08 04:17:08;;;;;;;;;;;;;;;19.57;58.91;101269.63;7395540;19;1505;-41
2023/12/08 04:19:37;;;;;;;;;;;;;;;19.50;59.06;101271.97;7392901;19;1634;-41
2023/12/08 04:22:05;;;;;;;;;;;;;;;18.93;60.31;101249.78;7396507;19;1362;-41
2023/12/08 04:24:36;;;;;;;;;;;;;;;18.64;61.03;101282.41;7394284;19;1875;-41
2023/12/08 04:27:04;;;;;;;;;;;;;;;18.54;61.62;101286.75;7395056;19;1998;-41
2023/12/08 04:29:33;;;;;;;;;;;;;;;19.22;59.88;101276.06;7394207;19;1912;-41
2023/12/08 04:32:01;;;;;;;;;;;;;;;19.44;59.05;101269.81;7393889;19;1548;-41
2023/12/08 04:34:29;;;;;;;;;;;;;;;19.56;58.77;101267.94;7394041;19;1816;-41
2023/12/08 04:36:58;;;;;;;;;;;;;;;19.28;59.45;101275.56;7395054;19;1405;-41
2023/12/08 04:39:26;;;;;;;;;;;;;;;18.78;60.38;101297.38;7395669;19;1794;-41
2023/12/08 04:41:57;;;;;;;;;;;;;;;18.52;61.28;101293.22;7393846;19;1435;-41
2023/12/08 04:44:25;;;;;;;;;;;;;;;18.85;60.62;101295.09;7391539;19;1866;-41
2023/12/08 04:46:54;;;;;;;;;;;;;;;19.30;59.57;101292.38;7388605;19;1566;-41
2023/12/08 04:49:22;;;;;;;;;;;;;;;19.61;58.64;101295.22;7393173;19;1615;-41
2023/12/08 04:51:50;;;;;;;;;;;;;;;19.67;58.64;101298.25;7392850;19;1425;-41
2023/12/08 04:54:19;;;;;;;;;;;;;;;19.66;58.63;101290.34;7392309;19;1730;-41
2023/12/08 04:56:47;;;;;;;;;;;;;;;19.67;58.79;101297.41;7393011;19;1799;-41
2023/12/08 04:59:18;;;;;;;;;;;;;;;19.62;58.80;101291.59;7393763;19;1500;-41
2023/12/08 05:01:46;;;;;;;;;;;;;;;19.61;58.92;101284.50;7393204;19;1543;-41
2023/12/08 05:04:14;;;;;;;;;;;;;;;19.57;59.00;101301.81;7390324;19;1851;-42
2023/12/08 05:06:43;;;;;;;;;;;;;;;19.47;59.18;101302.56;7393484;19;1727;-41
2023/12/08 05:09:12;;;;;;;;;;;;;;;19.02;58.82;101208.84;7394805;19;1221;-41
2023/12/08 05:11:40;;;;;;;;;;;;;;;19.50;59.04;101305.97;7391557;19;1492;-41
2023/12/08 05:14:08;;;;;;;;;;;;;;;19.21;58.97;101260.94;7391691;19;1722;-45
2023/12/08 05:16:39;;;;;;;;;;;;;;;19.41;58.75;101308.44;7375088;19;1465;-42
2023/12/08 05:19:08;;;;;;;;;;;;;;;19.43;58.28;101313.69;7389649;19;1829;-42
2023/12/08 05:21:36;;;;;;;;;;;;;;;19.35;57.88;101314.31;7388162;19;1484;-42
2023/12/08 05:24:04;;;;;;;;;;;;;;;19.43;58.02;101333.31;7388593;19;1850;-42
2023/12/08 05:26:33;;;;;;;;;;;;;;;19.42;57.59;101312.84;7389210;19;1466;-42
2023/12/08 05:29:01;;;;;;;;;;;;;;;19.24;58.13;101317.03;7337020;19;15654;-42
2023/12/08 05:31:29;;;;;;;;;;;;;;;18.79;59.37;101327.72;7390786;19;1417;-42
2023/12/08 05:34:00;;;;;;;;;;;;;;;18.45;59.96;101322.28;7390332;19;1519;-42
2023/12/08 05:36:28;;;;;;;;;;;;;;;18.33;60.11;101328.59;7392532;19;1377;-42
2023/12/08 05:38:57;;;;;;;;;;;;;;;18.17;60.27;101326.25;7391262;19;1713;-42
2023/12/08 05:41:25;;;;;;;;;;;;;;;18.03;61.01;101329.97;7391194;19;1545;-42
2023/12/08 05:43:53;;;;;;;;;;;;;;;18.25;61.42;101335.38;7391219;19;1861;-43
2023/12/08 05:46:22;;;;;;;;;;;;;;;18.69;60.44;101322.22;7390557;19;1486;-42
2023/12/08 05:48:50;;;;;;;;;;;;;;;19.03;60.34;101333.84;7389907;19;1503;-43
2023/12/08 05:51:21;;;;;;;;;;;;;;;19.49;59.68;101315.88;7391688;19;1712;-43
2023/12/08 05:53:49;;;;;;;;;;;;;;;19.23;60.09;101320.66;7391365;19;1572;-42
2023/12/08 05:56:18;;;;;;;;;;;;;;;18.76;60.98;101339.53;7391181;19;1559;-43
2023/12/08 05:58:46;;;;;;;;;;;;;;;18.48;61.52;101333.63;7392077;19;1518;-43
2023/12/08 06:01:14;;;;;;;;;;;;;;;18.33;62.25;101325.91;7391466;19;1623;-43
2023/12/08 06:03:43;;;;;;;;;;;;;;;18.16;62.63;101336.06;7388419;19;1955;-43
2023/12/08 06:06:11;;;;;;;;;;;;;;;18.04;62.65;101332.50;7391565;19;1564;-42
2023/12/08 06:08:42;;;;;;;;;;;;;;;18.18;62.82;101339.47;7390853;19;1566;-42
2023/12/08 06:11:10;;;;;;;;;;;;;;;18.64;60.22;101351.16;7387805;19;1463;-42
2023/12/08 06:13:39;;;;;;;;;;;;;;;18.94;59.38;101320.31;7388816;19;1554;-42
2023/12/08 06:16:07;;;;;;;;;;;;;;;18.59;59.73;101359.56;7371503;19;1532;-43
2023/12/08 06:18:35;;;;;;;;;;;;;;;18.32;60.83;101334.91;7387898;19;1380;-42
2023/12/08 06:21:04;;;;;;;;;;;;;;;18.18;61.56;101347.50;7388736;19;1767;-42
2023/12/08 06:23:32;;;;;;;;;;;;;;;17.50;61.35;101261.56;7386673;19;1534;-42
2023/12/08 06:26:03;;;;;;;;;;;;;;;18.15;61.03;101350.44;7386302;19;1847;-42
2023/12/08 06:28:32;;;;;;;;;;;;;;;18.85;59.52;101354.06;7386402;19;1654;-42
2023/12/08 06:31:01;;;;;;;;;;;;;;;18.78;59.46;101352.78;7386931;19;1721;-42
2023/12/08 06:33:29;;;;;;;;;;;;;;;18.40;60.23;101359.28;7387315;19;1620;-42
2023/12/08 06:35:58;;;;;;;;;;;;;;;18.13;61.10;101346.19;7389761;19;992;-42
2023/12/08 06:38:26;;;;;;;;;;;;;;;18.00;61.51;101368.47;7385879;19;1828;-42
2023/12/08 06:40:56;;;;;;;;;;;;;;;18.08;61.35;101351.84;7390246;19;1733;-43
2023/12/08 06:43:27;;;;;;;;;;;;;;;18.61;59.71;101368.34;7387769;19;1363;-43
2023/12/08 06:45:55;;;;;;;;;;;;;;;18.75;59.19;101359.25;7389055;19;1847;-43
2023/12/08 06:48:24;;;;;;;;;;;;;;;18.48;59.71;101367.56;7390170;19;1626;-42
2023/12/08 06:50:55;;;;;;;;;;;;;;;18.18;60.49;101339.47;7386613;19;1543;-42
2023/12/08 06:53:23;;;;;;;;;;;;;;;18.02;60.94;101358.50;7382574;19;1546;-42
2023/12/08 06:55:52;;;;;;;;;;;;;;;17.89;60.87;101369.28;7389328;19;1765;-43
2023/12/08 06:58:20;;;;;;;;;;;;;;;18.34;59.68;101370.44;7387397;19;1556;-43
2023/12/08 07:00:51;;;;;;;;;;;;;;;18.66;58.60;101371.53;7386852;19;1365;-42
2023/12/08 07:03:19;;;;;;;;;;;;;;;18.52;58.86;101390.47;7388644;19;1831;-42
2023/12/08 07:05:48;;;;;;;;;;;;;;;18.22;59.61;101378.47;7387357;19;1845;-43
2023/12/08 07:08:16;;;;;;;;;;;;;;;18.03;60.20;101375.44;7388678;19;1464;-42
2023/12/08 07:10:44;;;;;;;;;;;;;;;17.89;60.56;101382.66;7387727;19;1405;-43
2023/12/08 07:13:13;;;;;;;;;;;;;;;18.21;59.66;101375.91;7387056;19;1378;-42
2023/12/08 07:15:41;;;;;;;;;;;;;;;18.63;58.59;101379.78;7375554;19;1148;-42
2023/12/08 07:18:12;;;;;;;;;;;;;;;19.01;57.48;101375.97;7389108;19;1901;-43
2023/12/08 07:20:40;;;;;;;;;;;;;;;19.04;57.50;101370.41;7388400;19;1464;-43
2023/12/08 07:23:09;;;;;;;;;;;;;;;19.03;57.31;101387.44;7386723;19;1405;-43
2023/12/08 07:25:37;;;;;;;;;;;;;;;19.07;57.43;101364.78;7384280;19;1852;-43
2023/12/08 07:28:06;;;;;;;;;;;;;;;19.10;57.33;101378.91;7385879;19;1627;-42
2023/12/08 07:30:35;;;;;;;;;;;;;;;19.14;57.19;101391.97;7385150;19;1254;-43
2023/12/08 07:33:03;;;;;;;;;;;;;;;19.18;57.02;101376.47;7387393;19;1405;-42
2023/12/08 07:35:34;;;;;;;;;;;;;;;19.13;57.39;101376.00;7388459;19;1332;-42
2023/12/08 07:38:03;;;;;;;;;;;;;;;19.10;57.56;101386.94;7388827;19;1496;-42
2023/12/08 07:40:32;;;;;;;;;;;;;;;19.11;57.47;101380.63;7391416;19;1685;-43
2023/12/08 07:43:00;;;;;;;;;;;;;;;19.04;57.54;101380.28;7393242;19;1820;-42
2023/12/08 07:45:28;;;;;;;;;;;;;;;18.59;58.33;101372.97;7394296;19;1854;-43
2023/12/08 07:47:57;;;;;;;;;;;;;;;18.26;59.24;101379.94;7377364;19;2110;-42
2023/12/08 07:50:26;;;;;;;;;;;;;;;18.12;59.94;101392.63;7393838;19;1567;-43
2023/12/08 07:52:57;;;;;;;;;;;;;;;17.92;60.02;101381.59;7382137;19;1424;-42
2023/12/08 07:55:25;;;;;;;;;;;;;;;18.12;59.94;101390.81;7395260;19;1396;-42
2023/12/08 07:57:53;;;;;;;;;;;;;;;18.70;58.49;101388.19;7391654;19;1899;-43
2023/12/08 08:00:22;;;;;;;;;;;;;;;18.58;58.67;101390.03;7397934;19;1904;-43
2023/12/08 08:02:50;;;;;;;;;;;;;;;18.35;58.72;101380.22;7392985;19;1361;-43
2023/12/08 08:05:19;;;;;;;;;;;;;;;18.10;59.54;101384.72;7387700;19;1849;-42
2023/12/08 08:07:47;;;;;;;;;;;;;;;17.99;59.98;101388.19;7388890;19;1586;-43
2023/12/08 08:10:18;;;;;;;;;;;;;;;17.94;59.97;101389.50;7387557;19;1488;-43
2023/12/08 08:12:46;;;;;;;;;;;;;;;18.53;58.87;101397.53;7377622;19;1651;-42
2023/12/08 08:15:15;;;;;;;;;;;;;;;18.10;58.22;101299.06;7356269;19;2023;-43
2023/12/08 08:17:43;;;;;;;;;;;;;;;18.32;58.45;101383.09;7386173;19;1234;-43
2023/12/08 08:20:12;;;;;;;;;;;;;;;18.08;59.51;101405.38;7389001;19;1498;-43
2023/12/08 08:22:40;;;;;;;;;;;;;;;17.92;59.87;101412.84;7389563;19;1488;-43
2023/12/08 08:25:09;;;;;;;;;;;;;;;18.06;59.78;101408.19;7390898;19;1869;-43
2023/12/08 08:27:40;;;;;;;;;;;;;;;18.57;58.60;101415.09;7393083;19;1752;-43
2023/12/08 08:30:09;;;;;;;;;;;;;;;18.54;58.49;101401.91;7391806;19;1531;-43
2023/12/08 08:32:38;;;;;;;;;;;;;;;18.27;58.53;101408.41;7392386;19;1183;-43
2023/12/08 08:35:07;;;;;;;;;;;;;;;18.07;59.70;101414.41;7386245;19;1412;-41
2023/12/08 08:37:35;;;;;;;;;;;;;;;17.89;59.67;101409.44;7389513;19;1715;-42
2023/12/08 08:40:05;;;;;;;;;;;;;;;18.23;59.05;101416.78;7391689;19;1583;-42
2023/12/08 08:42:33;;;;;;;;;;;;;;;18.66;57.92;101406.38;7390440;19;1376;-42
2023/12/08 08:45:04;;;;;;;;;;;;;;;18.54;58.75;101409.94;7391048;19;1855;-43
2023/12/08 08:47:32;;;;;;;;;;;;;;;18.22;59.05;101401.69;7389302;19;1757;-43
2023/12/08 08:50:01;;;;;;;;;;;;;;;18.02;59.82;101403.16;7392193;19;1793;-42
2023/12/08 08:52:29;;;;;;;;;;;;;;;17.91;60.27;101392.41;7393082;19;1610;-43
2023/12/08 08:54:57;;;;;;;;;;;;;;;18.26;59.16;101379.94;7390229;19;1480;-42
2023/12/08 08:57:25;;;;;;;;;;;;;;;18.62;58.37;101379.91;7390335;19;1758;-42
2023/12/08 08:59:54;;;;;;;;;;;;;;;18.40;58.89;101378.91;7392464;19;1458;-42
2023/12/08 09:02:25;;;;;;;;;;;;;;;18.14;59.54;101369.28;7393012;19;1388;-42
2023/12/08 09:04:53;;;;;;;;;;;;;;;17.95;59.95;101385.88;7390512;19;1859;-43
2023/12/08 09:07:21;;;;;;;;;;;;;;;17.81;60.35;101377.00;7390827;19;1880;-43
2023/12/08 09:09:49;;;;;;;;;;;;;;;18.32;58.89;101359.00;7391932;19;1270;-45
2023/12/08 09:12:19;;;;;;;;;;;;;;;18.66;57.69;101381.38;7392327;19;1740;-43
2023/12/08 09:14:47;;;;;;;;;;;;;;;18.43;58.26;101375.13;7390643;19;1481;-42
2023/12/08 09:17:15;;;;;;;;;;;;;;;18.20;59.14;101380.38;7374789;19;2171;-42
2023/12/08 09:19:46;;;;;;;;;;;;;;;17.97;59.60;101373.22;7392176;19;1633;-42
2023/12/08 09:22:14;;;;;;;;;;;;;;;17.82;60.13;101348.41;7391089;19;1805;-42
2023/12/08 09:24:43;;;;;;;;;;;;;;;18.23;59.04;101364.09;7389471;19;1853;-42
2023/12/08 09:27:11;;;;;;;;;;;;;;;18.61;58.10;101367.50;7391743;19;1481;-42
2023/12/08 09:29:39;;;;;;;;;;;;;;;18.41;58.73;101361.84;7391465;19;1562;-42
2023/12/08 09:32:08;;;;;;;;;;;;;;;18.14;59.14;101359.41;7390788;19;1539;-42
2023/12/08 09:34:38;;;;;;;;;;;;;;;17.95;60.08;101361.78;7388099;19;1606;-42
2023/12/08 09:37:09;;;;;;;;;;;;;;;17.83;60.42;101372.44;7389855;19;1422;-42
2023/12/08 09:39:37;;;;;;;;;;;;;;;18.29;59.07;101371.66;7391943;19;1392;-42
2023/12/08 09:42:10;;;;;;;;;;;;;;;18.66;58.25;101363.50;7391662;19;1247;-42
2023/12/08 09:44:38;;;;;;;;;;;;;;;18.43;58.75;101365.25;7390168;19;1368;-42
2023/12/08 09:47:08;;;;;;;;;;;;;;;18.23;59.27;101360.56;7387539;19;1874;-42
2023/12/08 09:49:39;;;;;;;;;;;;;;;18.01;59.97;101364.00;7391378;19;1851;-43
2023/12/08 09:52:11;;;;;;;;;;;;;;;17.81;60.18;101352.06;7389944;19;1386;-43
2023/12/08 09:54:39;;;;;;;;;;;;;;;18.27;59.30;101354.00;7391181;19;1434;-42
2023/12/08 09:57:08;;;;;;;;;;;;;;;18.58;58.39;101331.09;7391425;19;1468;-42
2023/12/08 09:59:38;;;;;;;;;;;;;;;18.48;58.85;101330.94;7391094;19;1713;-43
2023/12/08 10:02:07;;;;;;;;;;;;;;;18.20;59.19;101326.84;7389835;19;1823;-42
2023/12/08 10:04:35;;;;;;;;;;;;;;;17.97;60.13;101319.72;7387478;19;1476;-43
2023/12/08 10:07:05;;;;;;;;;;;;;;;17.82;60.51;101301.09;7386834;19;1848;-42
2023/12/08 10:09:37;;;;;;;;;;;;;;;18.22;59.54;101327.59;7391550;19;1817;-42
2023/12/08 10:12:06;;;;;;;;;;;;;;;18.65;58.36;101305.53;7388681;19;1572;-42
2023/12/08 10:14:34;;;;;;;;;;;;;;;18.38;58.98;101307.66;7384370;19;1416;-43
2023/12/08 10:17:03;;;;;;;;;;;;;;;18.12;59.36;101313.19;7373216;19;1389;-43
2023/12/08 10:19:31;;;;;;;;;;;;;;;17.98;60.05;101316.91;7389600;19;1606;-43
2023/12/08 10:22:02;;;;;;;;;;;;;;;18.45;58.71;101314.25;7389695;19;1492;-43
2023/12/08 10:24:32;;;;;;;;;;;;;;;18.71;57.96;101306.88;7389420;19;1446;-43
2023/12/08 10:27:03;;;;;;;;;;;;;;;19.11;56.89;101292.16;7388219;19;1877;-43
2023/12/08 10:29:32;;;;;;;;;;;;;;;19.35;56.25;101282.13;7389125;19;1476;-45
2023/12/08 10:32:00;;;;;;;;;;;;;;;19.13;55.89;101277.66;7388277;19;1491;-43
2023/12/08 10:34:29;;;;;;;;;;;;;;;19.00;56.45;101271.56;7386226;19;1190;-43
2023/12/08 10:36:58;;;;;;;;;;;;;;;19.10;56.22;101280.59;7388117;19;1463;-42
2023/12/08 10:39:27;;;;;;;;;;;;;;;19.12;55.98;101275.09;7389262;19;1852;-43
2023/12/08 10:41:56;;;;;;;;;;;;;;;19.11;55.71;101284.13;7390628;19;1056;-43
2023/12/08 10:44:27;;;;;;;;;;;;;;;19.05;55.74;101270.22;7390500;19;1931;-43
2023/12/08 10:46:55;;;;;;;;;;;;;;;19.00;55.80;101276.94;7386241;19;1848;-43
2023/12/08 10:49:23;;;;;;;;;;;;;;;19.02;56.05;101265.13;7388558;19;1933;-43
2023/12/08 10:51:52;;;;;;;;;;;;;;;18.99;55.99;101248.44;7388739;19;1490;-43
2023/12/08 10:54:20;;;;;;;;;;;;;;;19.04;55.72;101252.47;7389390;19;1492;-44
2023/12/08 10:56:50;;;;;;;;;;;;;;;19.11;55.90;101251.97;7388022;19;1281;-43
2023/12/08 10:59:19;;;;;;;;;;;;;;;19.10;56.03;101253.78;7386860;19;1452;-43
2023/12/08 11:01:51;;;;;;;;;;;;;;;19.02;56.04;101241.00;7387967;19;1754;-43
2023/12/08 11:04:22;;;;;;;;;;;;;;;18.99;56.30;101249.28;7387151;19;1668;-43
2023/12/08 11:06:56;;;;;;;;;;;;;;;19.02;56.34;101227.59;7386553;19;1818;-43
2023/12/08 11:09:26;;;;;;;;;;;;;;;19.03;56.27;101237.34;7388623;19;1553;-43
2023/12/08 11:11:56;;;;;;;;;;;;;;;19.17;55.65;101238.91;7386345;19;1730;-43
2023/12/08 11:14:29;;;;;;;;;;;;;;;19.16;56.33;101244.38;7388750;19;1508;-43
2023/12/08 11:17:04;;;;;;;;;;;;;;;19.04;56.93;101241.72;7379768;19;1683;-43
2023/12/08 11:19:33;;;;;;;;;;;;;;;18.96;57.25;101225.44;7396003;19;1389;-43
2023/12/08 11:22:02;;;;;;;;;;;;;;;18.98;57.31;101230.63;7397384;19;1775;-43
2023/12/08 11:24:31;;;;;;;;;;;;;;;19.05;57.03;101231.84;7395244;19;1483;-43
2023/12/08 11:27:03;;;;;;;;;;;;;;;19.10;56.70;101236.84;7393688;19;1851;-42
2023/12/08 11:29:36;;;;;;;;;;;;;;;19.10;56.99;101223.44;7393532;19;1337;-43
2023/12/08 11:32:12;;;;;;;;;;;;;;;19.21;56.38;101224.25;7391324;19;1378;-43
2023/12/08 11:34:46;;;;;;;;;;;;;;;19.30;56.07;101229.84;7394649;19;1504;-43
2023/12/08 11:37:15;;;;;;;;;;;;;;;19.18;55.84;101224.53;7394093;19;1479;-43
2023/12/08 11:53:15;;;;;;;;;;;;;;;18.80;57.45;101232.97;6734251;19;10002059;-43
2023/12/08 11:55:44;;;;;;;;;;;;;;;18.88;56.93;101234.06;7418535;19;1374;-44
2023/12/08 11:58:12;;;;;;;;;;;;;;;18.52;57.93;101234.28;7415568;19;1454;-43
2023/12/08 12:00:43;;;;;;;;;;;;;;;18.32;58.75;101233.16;7421494;19;1838;-43
2023/12/08 12:03:11;;;;;;;;;;;;;;;18.62;57.72;101224.53;7410243;19;1382;-44
2023/12/08 12:05:41;;;;;;;;;;;;;;;18.87;57.33;101229.69;7415703;19;1557;-43
2023/12/08 12:08:09;;;;;;;;;;;;;;;18.92;57.06;101218.59;7421502;19;1441;-43
2023/12/08 12:10:42;;;;;;;;;;;;;;;18.59;58.06;101238.19;7421075;19;1656;-44
2023/12/08 12:13:13;;;;;;;;;;;;;;;18.31;58.90;101228.81;7421969;19;1601;-43
2023/12/08 12:15:42;;;;;;;;;;;;;;;18.52;58.25;101224.41;7422307;19;1425;-44
2023/12/08 12:18:13;;;;;;;;;;;;;;;18.84;57.61;101229.06;7419380;19;1608;-44
2023/12/08 12:20:41;;;;;;;;;;;;;;;19.04;57.01;101228.34;7422047;19;1869;-44
2023/12/08 12:23:11;;;;;;;;;;;;;;;18.64;57.69;101228.81;7423401;19;1837;-43
2023/12/08 12:25:42;;;;;;;;;;;;;;;18.35;58.46;101220.41;7423666;19;1657;-43
2023/12/08 12:28:11;;;;;;;;;;;;;;;18.52;58.14;101223.56;7423489;19;1644;-43
2023/12/08 12:30:39;;;;;;;;;;;;;;;18.78;57.61;101214.31;7422120;19;1795;-43
2023/12/08 12:33:08;;;;;;;;;;;;;;;19.12;56.63;101219.66;7423071;19;1990;-44
2023/12/08 12:35:37;;;;;;;;;;;;;;;19.27;56.36;101220.22;7421696;19;1871;-44
2023/12/08 12:38:05;;;;;;;;;;;;;;;19.19;56.27;101206.59;7421396;19;1802;-43
2023/12/08 12:40:34;;;;;;;;;;;;;;;19.10;56.63;101207.34;7423764;19;1646;-43
2023/12/08 12:43:05;;;;;;;;;;;;;;;19.19;56.71;101238.78;7418408;19;1853;-43
2023/12/08 12:45:35;;;;;;;;;;;;;;;19.27;56.08;101212.19;7420152;19;1664;-43
2023/12/08 12:48:06;;;;;;;;;;;;;;;19.25;56.30;101206.09;7420033;19;1636;-43
2023/12/08 12:50:46;;;;;;;;;;;;;;;19.34;55.96;101210.72;7421084;19;1594;-44
2023/12/08 12:53:14;;;;;;;;;;;;;;;19.29;56.04;101196.81;7400699;19;1274;-41
2023/12/08 12:55:43;;;;;;;;;;;;;;;19.35;55.67;101211.56;7389253;19;1597;-41
2023/12/08 12:58:22;;;;;;;;;;;;;;;19.28;55.92;101213.91;7389956;19;1355;-41
2023/12/08 13:00:50;;;;;;;;;;;;;;;19.16;56.41;101207.72;7388131;19;1865;-41
2023/12/08 13:03:20;;;;;;;;;;;;;;;19.13;56.58;101216.00;7388038;19;1584;-41
2023/12/08 13:05:49;;;;;;;;;;;;;;;19.19;56.50;101233.41;7390010;19;1845;-41
2023/12/08 13:08:18;;;;;;;;;;;;;;;19.27;56.28;101220.22;7387592;19;1320;-41